createdAt,value
2023-03-01T00:02:02.838Z,103358.38
2023-03-01T00:04:32.971Z,103353.19
2023-03-01T00:07:06.130Z,103354.94
2023-03-01T00:09:41.450Z,103357.50
2023-03-01T00:12:09.859Z,103354.00
2023-03-01T00:14:39.512Z,103353.97
2023-03-01T00:17:08.269Z,103344.38
2023-03-01T00:19:37.277Z,103340.00
2023-03-01T00:22:08.497Z,103336.47
2023-03-01T00:24:37.438Z,103338.25
2023-03-01T00:27:07.355Z,103343.47
2023-03-01T00:29:35.860Z,103339.06
2023-03-01T00:32:05.564Z,103345.09
2023-03-01T00:34:34.003Z,103345.94
2023-03-01T00:37:06.824Z,103341.47
2023-03-01T00:39:44.048Z,103341.41
2023-03-01T00:42:12.512Z,103346.59
2023-03-01T00:44:42.073Z,103339.41
2023-03-01T00:47:11.036Z,103334.06
2023-03-01T00:49:39.769Z,103325.22
2023-03-01T00:52:08.547Z,103325.16
2023-03-01T00:54:37.974Z,103318.09
2023-03-01T00:57:08.951Z,103313.66
2023-03-01T00:59:38.347Z,103319.75
2023-03-01T01:02:07.151Z,103320.66
2023-03-01T01:04:36.527Z,103321.50
2023-03-01T01:07:05.005Z,103317.13
2023-03-01T01:09:33.770Z,103329.47
2023-03-01T01:12:03.408Z,103321.63
2023-03-01T01:14:33.711Z,103317.28
2023-03-01T01:17:02.605Z,103312.06
2023-03-01T01:19:31.438Z,103319.03
2023-03-01T01:22:02.823Z,103326.91
2023-03-01T01:24:34.005Z,103318.19
2023-03-01T01:27:02.497Z,103322.56
2023-03-01T01:29:33.838Z,103327.84
2023-03-01T01:32:03.398Z,103322.53
2023-03-01T01:34:33.121Z,103327.84
2023-03-01T01:37:03.940Z,103319.97
2023-03-01T01:39:33.378Z,103321.75
2023-03-01T01:42:03.265Z,103309.47
2023-03-01T01:44:37.241Z,103306.00
2023-03-01T01:47:08.782Z,103298.06
2023-03-01T01:49:40.916Z,103298.09
2023-03-01T01:52:16.459Z,103291.97
2023-03-01T01:54:52.138Z,103285.78
2023-03-01T01:57:24.973Z,103284.94
2023-03-01T02:00:00.879Z,103287.53
2023-03-01T02:02:29.767Z,103282.25
2023-03-01T02:05:11.776Z,103271.78
2023-03-01T02:07:41.739Z,103286.72
2023-03-01T02:10:11.791Z,103273.63
2023-03-01T02:12:43.152Z,103257.91
2023-03-01T02:15:18.521Z,103257.00
2023-03-01T02:17:47.343Z,103246.59
2023-03-01T02:20:24.586Z,103243.97
2023-03-01T02:22:56.253Z,103236.13
2023-03-01T02:25:41.458Z,103232.63
2023-03-01T02:28:32.543Z,103230.84
2023-03-01T02:31:22.994Z,103228.28
2023-03-01T02:33:51.409Z,103231.75
2023-03-01T02:36:26.631Z,103220.44
2023-03-01T02:38:59.541Z,103218.69
2023-03-01T02:41:31.434Z,103216.00
2023-03-01T02:44:01.591Z,103208.19
2023-03-01T02:46:45.638Z,103207.25
2023-03-01T02:49:29.461Z,103211.63
2023-03-01T02:52:24.261Z,103205.47
2023-03-01T02:54:59.032Z,103195.03
2023-03-01T02:57:30.062Z,103199.38
2023-03-01T03:00:02.915Z,103200.22
2023-03-01T03:02:38.968Z,103195.03
2023-03-01T03:05:11.734Z,103192.41
2023-03-01T03:07:42.947Z,103193.25
2023-03-01T03:10:15.385Z,103192.41
2023-03-01T03:12:44.427Z,103192.31
2023-03-01T03:15:14.042Z,103188.88
2023-03-01T03:17:46.285Z,103187.16
2023-03-01T03:20:20.354Z,103191.47
2023-03-01T03:22:51.822Z,103178.38
2023-03-01T03:25:21.866Z,103191.50
2023-03-01T03:27:58.113Z,103175.75
2023-03-01T03:30:29.496Z,103178.31
2023-03-01T03:33:05.601Z,103173.13
2023-03-01T03:35:37.699Z,103183.66
2023-03-01T03:38:18.072Z,103172.31
2023-03-01T03:40:48.313Z,103173.19
2023-03-01T03:43:19.291Z,103182.03
2023-03-01T03:45:48.270Z,103178.50
2023-03-01T03:48:31.235Z,103182.00
2023-03-01T03:50:59.947Z,103179.41
2023-03-01T03:53:31.676Z,103182.97
2023-03-01T03:56:00.579Z,103183.84
2023-03-01T03:58:30.255Z,103182.16
2023-03-01T04:01:00.337Z,103176.03
2023-03-01T04:03:37.933Z,103174.25
2023-03-01T04:06:08.047Z,103171.63
2023-03-01T04:08:36.717Z,103165.56
2023-03-01T04:11:29.774Z,103167.31
2023-03-01T04:14:01.706Z,103165.47
2023-03-01T04:16:30.670Z,103164.69
2023-03-01T04:19:01.680Z,103163.84
2023-03-01T04:21:37.261Z,103162.09
2023-03-01T04:24:08.461Z,103150.72
2023-03-01T04:26:37.439Z,103153.34
2023-03-01T04:29:05.852Z,103155.06
2023-03-01T04:31:35.793Z,103159.44
2023-03-01T04:34:05.923Z,103158.59
2023-03-01T04:36:37.228Z,103151.63
2023-03-01T04:39:13.611Z,103149.81
2023-03-01T04:41:44.507Z,103144.66
2023-03-01T04:44:14.466Z,103141.16
2023-03-01T04:46:42.843Z,103140.31
2023-03-01T04:49:13.217Z,103128.91
2023-03-01T04:51:41.696Z,103138.53
2023-03-01T04:54:11.589Z,103138.50
2023-03-01T04:56:40.228Z,103143.78
2023-03-01T04:59:11.419Z,103141.16
2023-03-01T05:01:40.016Z,103150.72
2023-03-01T05:04:14.312Z,103140.31
2023-03-01T05:06:47.477Z,103146.41
2023-03-01T05:09:22.046Z,103149.03
2023-03-01T05:11:51.200Z,103136.78
2023-03-01T05:14:19.751Z,103144.66
2023-03-01T05:16:48.362Z,103143.84
2023-03-01T05:19:24.038Z,103138.63
2023-03-01T05:22:06.351Z,103137.72
2023-03-01T05:24:39.893Z,103139.41
2023-03-01T05:27:08.849Z,103133.31
2023-03-01T05:29:37.322Z,103131.59
2023-03-01T05:32:07.032Z,103121.06
2023-03-01T05:34:37.858Z,103123.69
2023-03-01T05:37:09.153Z,103120.19
2023-03-01T05:39:37.729Z,103121.06
2023-03-01T05:42:06.625Z,103125.41
2023-03-01T05:44:48.436Z,103118.34
2023-03-01T05:47:18.203Z,103122.78
2023-03-01T05:49:48.664Z,103119.28
2023-03-01T05:52:18.686Z,103121.00
2023-03-01T05:54:48.234Z,103135.84
2023-03-01T05:57:19.762Z,103137.56
2023-03-01T05:59:48.510Z,103152.47
2023-03-01T06:02:16.820Z,103153.41
2023-03-01T06:04:51.209Z,103153.50
2023-03-01T06:07:27.250Z,103156.97
2023-03-01T06:09:55.854Z,103163.97
2023-03-01T06:12:25.454Z,103166.56
2023-03-01T06:14:55.582Z,103166.66
2023-03-01T06:17:25.487Z,103172.72
2023-03-01T06:19:54.203Z,103167.47
2023-03-01T06:22:22.877Z,103178.06
2023-03-01T06:24:53.223Z,103174.59
2023-03-01T06:27:28.069Z,103180.69
2023-03-01T06:29:56.806Z,103180.69
2023-03-01T06:32:31.586Z,103178.06
2023-03-01T06:35:01.103Z,103171.94
2023-03-01T06:37:29.489Z,103171.03
2023-03-01T06:39:59.604Z,103167.50
2023-03-01T06:42:30.805Z,103166.66
2023-03-01T06:45:03.052Z,103159.69
2023-03-01T06:47:33.047Z,103158.81
2023-03-01T06:50:01.785Z,103156.97
2023-03-01T06:52:31.967Z,103153.56
2023-03-01T06:55:04.003Z,103150.88
2023-03-01T06:57:33.928Z,103154.44
2023-03-01T07:00:02.507Z,103147.41
2023-03-01T07:02:31.243Z,103154.34
2023-03-01T07:05:00.783Z,103157.88
2023-03-01T07:07:29.444Z,103155.22
2023-03-01T07:09:58.383Z,103157.75
2023-03-01T07:12:29.553Z,103157.81
2023-03-01T07:15:00.306Z,103163.09
2023-03-01T07:17:28.931Z,103159.53
2023-03-01T07:20:00.639Z,103161.28
2023-03-01T07:22:31.935Z,103163.09
2023-03-01T07:25:00.810Z,103163.91
2023-03-01T07:27:33.171Z,103169.16
2023-03-01T07:30:01.757Z,103163.09
2023-03-01T07:32:31.956Z,103175.31
2023-03-01T07:35:02.875Z,103163.97
2023-03-01T07:37:34.038Z,103164.78
2023-03-01T07:40:02.540Z,103157.81
2023-03-01T07:42:33.586Z,103161.22
2023-03-01T07:45:09.635Z,103156.00
2023-03-01T07:47:46.947Z,103155.06
2023-03-01T07:50:16.704Z,103153.34
2023-03-01T07:52:48.057Z,103153.34
2023-03-01T07:55:17.541Z,103149.75
2023-03-01T07:57:47.744Z,103151.50
2023-03-01T08:00:16.859Z,103150.53
2023-03-01T08:02:48.284Z,103152.28
2023-03-01T08:05:16.941Z,103154.03
2023-03-01T08:07:46.016Z,103151.44
2023-03-01T08:10:18.149Z,103155.81
2023-03-01T08:12:48.432Z,103153.22
2023-03-01T08:15:17.498Z,103157.56
2023-03-01T08:17:46.218Z,103156.63
2023-03-01T08:20:15.155Z,103150.56
2023-03-01T08:22:43.804Z,103151.50
2023-03-01T08:25:12.486Z,103161.91
2023-03-01T08:27:44.231Z,103161.91
2023-03-01T08:30:16.383Z,103159.28
2023-03-01T08:32:45.121Z,103162.00
2023-03-01T08:35:14.142Z,103161.91
2023-03-01T08:37:43.862Z,103162.72
2023-03-01T08:40:15.007Z,103161.00
2023-03-01T08:42:45.600Z,103164.56
2023-03-01T08:45:19.405Z,103161.03
2023-03-01T08:47:48.415Z,103163.63
2023-03-01T08:50:17.883Z,103161.91
2023-03-01T08:52:46.386Z,103164.50
2023-03-01T08:55:17.687Z,103162.59
2023-03-01T08:57:46.427Z,103164.28
2023-03-01T09:00:19.026Z,103161.66
2023-03-01T09:02:47.736Z,103157.16
2023-03-01T09:05:16.593Z,103160.50
2023-03-01T09:07:45.852Z,103160.63
2023-03-01T09:10:14.654Z,103164.03
2023-03-01T09:12:46.300Z,103166.69
2023-03-01T09:15:16.437Z,103160.31
2023-03-01T09:17:46.293Z,103155.97
2023-03-01T09:20:14.888Z,103162.06
2023-03-01T09:22:43.863Z,103158.38
2023-03-01T09:25:13.315Z,103161.69
2023-03-01T09:27:43.344Z,103171.72
2023-03-01T09:30:13.819Z,103168.38
2023-03-01T09:32:45.971Z,103161.38
2023-03-01T09:35:14.566Z,103165.66
2023-03-01T09:37:46.605Z,103172.63
2023-03-01T09:40:17.844Z,103169.78
2023-03-01T09:42:56.152Z,103173.19
2023-03-01T09:45:33.581Z,103173.00
2023-03-01T09:48:07.051Z,103178.19
2023-03-01T09:50:45.811Z,103176.50
2023-03-01T09:53:19.109Z,103173.69
2023-03-01T09:55:52.077Z,103180.50
2023-03-01T09:58:41.067Z,103183.88
2023-03-01T10:01:33.994Z,103178.56
2023-03-01T10:04:15.239Z,103168.38
2023-03-01T10:06:52.958Z,103161.41
2023-03-01T10:09:22.756Z,103162.75
2023-03-01T10:11:55.239Z,103161.38
2023-03-01T10:14:34.227Z,103172.09
2023-03-01T10:17:12.491Z,103174.19
2023-03-01T10:19:45.820Z,103166.91
2023-03-01T10:22:18.779Z,103164.22
2023-03-01T10:24:47.835Z,103164.13
2023-03-01T10:27:24.126Z,103165.03
2023-03-01T10:30:01.695Z,103165.22
2023-03-01T10:32:30.625Z,103162.22
2023-03-01T10:35:00.952Z,103154.72
2023-03-01T10:37:29.656Z,103148.75
2023-03-01T10:40:07.005Z,103137.91
2023-03-01T10:42:38.819Z,103133.84
2023-03-01T10:45:36.161Z,103129.31
2023-03-01T10:48:16.653Z,103123.22
2023-03-01T10:50:48.022Z,103123.22
2023-03-01T10:53:32.316Z,103125.75
2023-03-01T10:56:07.866Z,103125.13
2023-03-01T10:58:37.803Z,103116.56
2023-03-01T11:01:08.581Z,103115.41
2023-03-01T11:03:39.716Z,103112.47
2023-03-01T11:06:24.454Z,103123.38
2023-03-01T11:08:54.341Z,103119.44
2023-03-01T11:11:33.713Z,103116.16
2023-03-01T11:14:19.450Z,103115.47
2023-03-01T11:17:02.681Z,103099.41
2023-03-01T11:19:31.391Z,103097.69
2023-03-01T11:22:06.239Z,103096.78
2023-03-01T11:24:43.481Z,103101.53
2023-03-01T11:27:20.231Z,103104.50
2023-03-01T11:29:54.267Z,103103.13
2023-03-01T11:32:27.629Z,103100.59
2023-03-01T11:35:03.303Z,103092.56
2023-03-01T11:37:38.171Z,103085.41
2023-03-01T11:40:16.016Z,103086.72
2023-03-01T11:43:00.367Z,103093.50
2023-03-01T11:45:38.179Z,103094.19
2023-03-01T11:48:29.400Z,103092.03
2023-03-01T11:51:07.213Z,103089.81
2023-03-01T11:53:54.981Z,103089.16
2023-03-01T11:56:31.834Z,103080.50
2023-03-01T11:59:22.544Z,103072.22
2023-03-01T12:02:29.150Z,103067.00
2023-03-01T12:05:38.488Z,103061.34
2023-03-01T12:08:17.430Z,103045.88
2023-03-01T12:10:58.788Z,103042.66
2023-03-01T12:13:55.988Z,103056.28
2023-03-01T12:17:00.037Z,103044.72
2023-03-01T12:19:53.610Z,103038.81
2023-03-01T12:22:33.121Z,103030.50
2023-03-01T12:25:24.528Z,103023.13
2023-03-01T12:28:16.574Z,103010.28
2023-03-01T12:31:29.575Z,103009.53
2023-03-01T12:34:08.345Z,102997.88
2023-03-01T12:37:10.122Z,102999.22
2023-03-01T12:39:53.614Z,102985.66
2023-03-01T12:42:33.668Z,102984.97
2023-03-01T12:45:28.717Z,102980.28
2023-03-01T12:48:12.785Z,102977.06
2023-03-01T12:50:45.283Z,102972.47
2023-03-01T12:53:25.376Z,102965.47
2023-03-01T12:55:57.840Z,102959.75
2023-03-01T12:58:48.751Z,102950.75
2023-03-01T13:01:30.316Z,102955.53
2023-03-01T13:04:23.907Z,102954.56
2023-03-01T13:07:08.223Z,102950.69
2023-03-01T13:09:44.718Z,102949.72
2023-03-01T13:12:51.741Z,102939.41
2023-03-01T13:15:32.414Z,102937.00
2023-03-01T13:18:04.996Z,102930.78
2023-03-01T13:20:37.013Z,102924.44
2023-03-01T13:23:16.973Z,102931.97
2023-03-01T13:26:15.613Z,102924.59
2023-03-01T13:29:02.745Z,102909.66
2023-03-01T13:32:06.072Z,102915.75
2023-03-01T13:34:56.826Z,102900.97
2023-03-01T13:37:38.632Z,102910.78
2023-03-01T13:40:40.714Z,102905.34
2023-03-01T13:43:32.452Z,102897.44
2023-03-01T13:46:02.829Z,102902.22
2023-03-01T13:48:33.891Z,102894.78
2023-03-01T13:51:06.396Z,102904.16
2023-03-01T13:53:38.257Z,102898.53
2023-03-01T13:56:13.471Z,102919.03
2023-03-01T13:58:52.577Z,102904.66
2023-03-01T14:01:29.055Z,102917.84
2023-03-01T14:03:58.741Z,102915.53
2023-03-01T14:06:31.556Z,102914.53
2023-03-01T14:09:07.586Z,102910.94
2023-03-01T14:12:29.390Z,102901.09
2023-03-01T14:15:05.267Z,102901.13
2023-03-01T14:17:52.599Z,102890.84
2023-03-01T14:20:23.642Z,102884.81
2023-03-01T14:22:57.616Z,102887.63
2023-03-01T14:25:31.117Z,102886.94
2023-03-01T14:28:06.621Z,102886.00
2023-03-01T14:31:27.229Z,102887.63
2023-03-01T14:33:58.490Z,102877.22
2023-03-01T14:36:32.001Z,102868.00
2023-03-01T14:39:07.328Z,102867.59
2023-03-01T14:41:38.268Z,102871.56
2023-03-01T14:44:15.323Z,102855.72
2023-03-01T14:46:47.202Z,102858.53
2023-03-01T14:49:19.655Z,102862.44
2023-03-01T14:51:54.805Z,102856.97
2023-03-01T14:54:28.754Z,102865.34
2023-03-01T14:57:02.736Z,102858.25
2023-03-01T14:59:31.589Z,102856.34
2023-03-01T15:02:02.050Z,102856.69
2023-03-01T15:04:32.425Z,102849.22
2023-03-01T15:07:06.437Z,102844.38
2023-03-01T15:09:39.713Z,102828.78
2023-03-01T15:12:27.545Z,102827.91
2023-03-01T15:15:04.148Z,102828.25
2023-03-01T15:17:36.080Z,102825.88
2023-03-01T15:20:07.018Z,102825.56
2023-03-01T15:22:36.150Z,102809.06
2023-03-01T15:25:07.421Z,102801.59
2023-03-01T15:27:38.055Z,102797.59
2023-03-01T15:30:07.553Z,102795.88
2023-03-01T15:32:40.997Z,102790.81
2023-03-01T15:35:41.703Z,102792.28
2023-03-01T15:38:29.097Z,102797.28
2023-03-01T15:41:01.428Z,102796.72
2023-03-01T15:43:45.323Z,102793.72
2023-03-01T15:46:26.812Z,102803.41
2023-03-01T15:48:58.939Z,102788.53
2023-03-01T15:51:34.465Z,102776.78
2023-03-01T15:54:07.469Z,102780.69
2023-03-01T15:56:37.474Z,102777.97
2023-03-01T15:59:08.187Z,102772.97
2023-03-01T16:01:36.935Z,102757.50
2023-03-01T16:04:05.744Z,102748.09
2023-03-01T16:06:34.786Z,102744.53
2023-03-01T16:09:03.887Z,102741.28
2023-03-01T16:11:33.799Z,102734.94
2023-03-01T16:14:03.913Z,102727.06
2023-03-01T16:16:32.625Z,102723.06
2023-03-01T16:19:01.157Z,102709.44
2023-03-01T16:21:29.891Z,102709.69
2023-03-01T16:23:58.607Z,102698.81
2023-03-01T16:26:27.238Z,102691.88
2023-03-01T16:28:58.318Z,102694.59
2023-03-01T16:31:30.417Z,102696.50
2023-03-01T16:34:01.171Z,102698.13
2023-03-01T16:36:30.405Z,102704.88
2023-03-01T16:39:01.570Z,102693.06
2023-03-01T16:41:34.010Z,102695.75
2023-03-01T16:44:02.789Z,102702.44
2023-03-01T16:46:33.199Z,102712.13
2023-03-01T16:49:01.539Z,102708.25
2023-03-01T16:51:31.388Z,102709.28
2023-03-01T16:54:00.232Z,102705.13
2023-03-01T16:56:28.856Z,102713.75
2023-03-01T16:58:59.902Z,102711.03
2023-03-01T17:01:34.514Z,102699.03
2023-03-01T17:04:04.889Z,102712.31
2023-03-01T17:06:33.631Z,102701.06
2023-03-01T17:09:02.562Z,102699.63
2023-03-01T17:11:31.481Z,102700.50
2023-03-01T17:14:00.579Z,102703.38
2023-03-01T17:16:29.432Z,102708.63
2023-03-01T17:18:58.304Z,102709.78
2023-03-01T17:21:28.592Z,102698.63
2023-03-01T17:23:59.601Z,102708.06
2023-03-01T17:26:29.541Z,102709.97
2023-03-01T17:28:59.528Z,102709.47
2023-03-01T17:31:28.324Z,102706.44
2023-03-01T17:33:59.319Z,102705.59
2023-03-01T17:36:30.237Z,102701.25
2023-03-01T17:38:58.740Z,102707.44
2023-03-01T17:41:29.008Z,102698.69
2023-03-01T17:43:57.748Z,102705.75
2023-03-01T17:46:27.556Z,102706.38
2023-03-01T17:48:56.089Z,102701.13
2023-03-01T17:51:24.741Z,102704.56
2023-03-01T17:53:54.685Z,102715.38
2023-03-01T17:56:23.947Z,102713.06
2023-03-01T17:58:52.621Z,102713.72
2023-03-01T18:01:23.550Z,102715.47
2023-03-01T18:03:53.445Z,102718.09
2023-03-01T18:06:23.949Z,102709.53
2023-03-01T18:08:55.308Z,102714.03
2023-03-01T18:11:25.918Z,102707.97
2023-03-01T18:13:55.658Z,102708.72
2023-03-01T18:16:24.957Z,102705.47
2023-03-01T18:18:56.028Z,102709.81
2023-03-01T18:21:27.973Z,102707.28
2023-03-01T18:23:59.917Z,102712.50
2023-03-01T18:26:30.077Z,102716.19
2023-03-01T18:29:01.372Z,102717.84
2023-03-01T18:31:33.719Z,102716.94
2023-03-01T18:34:02.931Z,102712.56
2023-03-01T18:36:34.251Z,102718.69
2023-03-01T18:39:06.537Z,102721.66
2023-03-01T18:41:35.415Z,102723.09
2023-03-01T18:44:05.827Z,102715.25
2023-03-01T18:46:38.198Z,102714.19
2023-03-01T18:49:07.556Z,102715.00
2023-03-01T18:51:36.435Z,102710.50
2023-03-01T18:54:06.924Z,102718.47
2023-03-01T18:56:36.519Z,102713.22
2023-03-01T18:59:05.300Z,102707.00
2023-03-01T19:01:37.379Z,102705.19
2023-03-01T19:04:09.320Z,102703.47
2023-03-01T19:06:38.330Z,102701.66
2023-03-01T19:09:09.677Z,102706.03
2023-03-01T19:11:38.367Z,102702.28
2023-03-01T19:14:08.865Z,102697.03
2023-03-01T19:16:40.739Z,102686.84
2023-03-01T19:19:10.285Z,102698.31
2023-03-01T19:21:39.294Z,102696.66
2023-03-01T19:24:09.644Z,102704.13
2023-03-01T19:26:37.928Z,102697.94
2023-03-01T19:29:06.395Z,102698.03
2023-03-01T19:31:34.821Z,102698.28
2023-03-01T19:34:12.345Z,102698.94
2023-03-01T19:36:42.870Z,102693.72
2023-03-01T19:39:14.944Z,102697.03
2023-03-01T19:41:44.086Z,102694.31
2023-03-01T19:44:14.130Z,102691.91
2023-03-01T19:46:42.774Z,102686.66
2023-03-01T19:49:11.810Z,102681.38
2023-03-01T19:51:40.201Z,102680.69
2023-03-01T19:54:10.466Z,102685.94
2023-03-01T19:56:40.604Z,102671.88
2023-03-01T19:59:09.419Z,102676.19
2023-03-01T20:01:42.483Z,102672.78
2023-03-01T20:04:11.515Z,102677.19
2023-03-01T20:06:41.686Z,102672.84
2023-03-01T20:09:21.530Z,102669.31
2023-03-01T20:11:52.300Z,102663.63
2023-03-01T20:14:23.723Z,102664.03
2023-03-01T20:16:53.294Z,102654.47
2023-03-01T20:19:22.683Z,102656.03
2023-03-01T20:21:51.885Z,102652.53
2023-03-01T20:24:20.796Z,102640.44
2023-03-01T20:26:49.617Z,102643.78
2023-03-01T20:29:20.228Z,102647.28
2023-03-01T20:31:48.815Z,102640.94
2023-03-01T20:34:18.022Z,102640.25
2023-03-01T20:36:46.881Z,102629.72
2023-03-01T20:39:16.004Z,102638.53
2023-03-01T20:41:44.498Z,102636.84
2023-03-01T20:44:12.792Z,102629.78
2023-03-01T20:46:42.769Z,102625.47
2023-03-01T20:49:11.256Z,102619.44
2023-03-01T20:51:39.712Z,102618.53
2023-03-01T20:54:08.316Z,102620.22
2023-03-01T20:56:37.904Z,102615.88
2023-03-01T20:59:08.814Z,102611.38
2023-03-01T21:01:38.319Z,102621.94
2023-03-01T21:04:09.402Z,102621.13
2023-03-01T21:06:39.133Z,102615.88
2023-03-01T21:09:07.972Z,102624.53
2023-03-01T21:11:36.480Z,102598.56
2023-03-01T21:14:05.717Z,102603.81
2023-03-01T21:16:35.826Z,102607.31
2023-03-01T21:19:05.987Z,102609.94
2023-03-01T21:21:35.820Z,102603.81
2023-03-01T21:24:04.204Z,102600.44
2023-03-01T21:26:33.115Z,102604.81
2023-03-01T21:29:02.693Z,102602.13
2023-03-01T21:31:34.235Z,102597.66
2023-03-01T21:34:05.398Z,102595.16
2023-03-01T21:36:37.122Z,102590.69
2023-03-01T21:39:07.294Z,102589.88
2023-03-01T21:41:37.996Z,102594.22
2023-03-01T21:44:08.275Z,102598.56
2023-03-01T21:46:40.946Z,102596.91
2023-03-01T21:49:10.225Z,102588.25
2023-03-01T21:51:40.360Z,102586.41
2023-03-01T21:54:09.126Z,102584.63
2023-03-01T21:56:40.330Z,102591.66
2023-03-01T21:59:10.432Z,102590.75
2023-03-01T22:01:38.917Z,102584.81
2023-03-01T22:04:07.445Z,102587.59
2023-03-01T22:06:40.826Z,102589.19
2023-03-01T22:09:14.984Z,102590.34
2023-03-01T22:11:47.211Z,102591.38
2023-03-01T22:14:16.568Z,102577.41
2023-03-01T22:16:46.806Z,102583.72
2023-03-01T22:19:17.700Z,102582.97
2023-03-01T22:22:06.351Z,102572.59
2023-03-01T22:24:45.461Z,102581.31
2023-03-01T22:27:14.372Z,102579.69
2023-03-01T22:29:49.154Z,102581.31
2023-03-01T22:32:17.979Z,102588.44
2023-03-01T22:34:49.988Z,102587.56
2023-03-01T22:37:18.628Z,102588.34
2023-03-01T22:39:48.597Z,102582.19
2023-03-01T22:42:17.065Z,102594.59
2023-03-01T22:44:45.831Z,102590.91
2023-03-01T22:47:14.854Z,102595.47
2023-03-01T22:49:45.767Z,102587.59
2023-03-01T22:52:14.322Z,102595.44
2023-03-01T22:54:43.308Z,102586.88
2023-03-01T22:57:13.173Z,102583.44
2023-03-01T22:59:41.635Z,102591.19
2023-03-01T23:02:10.281Z,102587.72
2023-03-01T23:04:39.479Z,102585.94
2023-03-01T23:07:07.822Z,102584.28
2023-03-01T23:09:36.145Z,102586.97
2023-03-01T23:12:07.833Z,102593.22
2023-03-01T23:14:38.309Z,102594.09
2023-03-01T23:17:08.639Z,102584.38
2023-03-01T23:19:37.280Z,102588.72
2023-03-01T23:22:05.946Z,102589.69
2023-03-01T23:24:36.521Z,102583.72
2023-03-01T23:27:06.134Z,102578.53
2023-03-01T23:29:34.627Z,102587.28
2023-03-01T23:32:05.069Z,102585.69
2023-03-01T23:34:33.425Z,102584.91
2023-03-01T23:37:03.487Z,102578.72
2023-03-01T23:39:32.722Z,102583.22
2023-03-01T23:42:02.847Z,102581.44
2023-03-01T23:44:31.846Z,102577.97
2023-03-01T23:47:01.067Z,102577.91
2023-03-01T23:49:31.186Z,102587.47
2023-03-01T23:52:01.751Z,102588.66
2023-03-01T23:54:31.306Z,102579.16
2023-03-01T23:57:00.225Z,102580.94
2023-03-01T23:59:28.936Z,102580.06
